createdAt,value
2019-05-26T00:00:55.843Z,12.10
2019-05-26T00:03:28.553Z,12.00
2019-05-26T00:05:57.855Z,11.90
2019-05-26T00:08:26.807Z,11.80
2019-05-26T00:10:55.856Z,11.70
2019-05-26T00:13:24.901Z,11.40
2019-05-26T00:16:00.574Z,11.30
2019-05-26T00:18:33.125Z,11.30
2019-05-26T00:20:59.942Z,11.50
2019-05-26T00:23:29.367Z,11.60
2019-05-26T00:26:00.139Z,11.70
2019-05-26T00:28:29.015Z,11.60
2019-05-26T00:30:58.650Z,11.40
2019-05-26T00:33:27.528Z,11.30
2019-05-26T00:36:01.418Z,11.10
2019-05-26T00:38:31.575Z,11.00
2019-05-26T00:41:00.204Z,10.90
2019-05-26T00:43:29.124Z,10.70
2019-05-26T00:45:58.386Z,10.50
2019-05-26T00:48:28.973Z,10.10
2019-05-26T00:50:59.859Z,10.20
2019-05-26T00:53:28.657Z,10.10
2019-05-26T00:55:58.043Z,9.90
2019-05-26T00:58:31.397Z,10.00
2019-05-26T01:01:00.893Z,10.00
2019-05-26T01:03:29.891Z,9.90
2019-05-26T01:05:58.798Z,9.90
2019-05-26T01:08:27.714Z,9.80
2019-05-26T01:11:01.305Z,9.70
2019-05-26T01:13:29.633Z,9.80
2019-05-26T01:15:59.410Z,9.70
2019-05-26T01:18:28.699Z,9.70
2019-05-26T01:20:58.190Z,9.60
2019-05-26T01:23:27.261Z,9.40
2019-05-26T01:25:56.656Z,9.40
2019-05-26T01:28:26.675Z,9.40
2019-05-26T01:30:56.256Z,9.50
2019-05-26T01:33:25.709Z,9.50
2019-05-26T01:36:14.325Z,9.50
2019-05-26T01:38:43.343Z,9.50
2019-05-26T01:41:14.442Z,9.70
2019-05-26T01:43:43.058Z,9.80
2019-05-26T01:46:11.667Z,9.80
2019-05-26T01:48:40.235Z,9.90
2019-05-26T01:51:08.843Z,10.00
2019-05-26T01:53:37.450Z,10.20
2019-05-26T01:56:06.022Z,10.30
2019-05-26T01:58:34.777Z,10.40
2019-05-26T02:01:06.139Z,10.40
2019-05-26T02:03:34.748Z,10.50
2019-05-26T02:06:03.845Z,10.60
2019-05-26T02:08:39.359Z,10.60
2019-05-26T02:11:03.016Z,10.60
2019-05-26T02:13:31.810Z,10.40
2019-05-26T02:16:01.656Z,10.30
2019-05-26T02:18:30.581Z,10.20
2019-05-26T02:21:00.325Z,10.00
2019-05-26T02:23:29.263Z,10.00
2019-05-26T02:26:00.106Z,9.50
2019-05-26T02:28:31.726Z,9.30
2019-05-26T02:31:00.689Z,9.50
2019-05-26T02:33:29.671Z,9.60
2019-05-26T02:36:01.121Z,9.70
2019-05-26T02:38:30.192Z,9.80
2019-05-26T02:41:01.663Z,9.90
2019-05-26T02:43:30.469Z,9.90
2019-05-26T02:46:01.727Z,9.70
2019-05-26T02:48:31.377Z,9.80
2019-05-26T02:51:00.167Z,9.80
2019-05-26T02:53:31.752Z,9.90
2019-05-26T02:56:00.485Z,10.00
2019-05-26T02:58:29.127Z,10.00
2019-05-26T03:00:58.354Z,10.10
2019-05-26T03:03:27.664Z,10.20
2019-05-26T03:05:57.159Z,10.60
2019-05-26T03:08:29.911Z,10.70
2019-05-26T03:11:00.458Z,10.80
2019-05-26T03:13:31.234Z,10.90
2019-05-26T03:16:02.218Z,10.90
2019-05-26T03:18:32.891Z,10.90
2019-05-26T03:21:03.312Z,10.90
2019-05-26T03:23:32.412Z,10.90
2019-05-26T03:26:01.632Z,10.70
2019-05-26T03:28:30.283Z,10.50
2019-05-26T03:30:58.973Z,10.40
2019-05-26T03:33:28.195Z,10.10
2019-05-26T03:35:57.291Z,9.70
2019-05-26T03:38:26.171Z,9.60
2019-05-26T03:40:55.202Z,9.60
2019-05-26T03:43:29.342Z,9.70
2019-05-26T03:46:04.030Z,9.60
2019-05-26T03:48:34.177Z,9.60
2019-05-26T03:51:02.758Z,9.70
2019-05-26T03:53:31.365Z,9.70
2019-05-26T03:56:00.505Z,9.70
2019-05-26T03:58:29.151Z,9.90
2019-05-26T04:00:58.355Z,10.20
2019-05-26T04:03:30.652Z,10.40
2019-05-26T04:05:59.395Z,10.60
2019-05-26T04:08:28.109Z,10.90
2019-05-26T04:10:57.008Z,11.10
2019-05-26T04:13:26.366Z,11.20
2019-05-26T04:15:59.004Z,11.40
2019-05-26T04:18:27.928Z,11.50
2019-05-26T04:20:59.677Z,11.50
2019-05-26T04:23:28.237Z,11.60
2019-05-26T04:25:58.468Z,11.50
2019-05-26T04:28:27.472Z,11.30
2019-05-26T04:30:56.399Z,11.10
2019-05-26T04:33:28.307Z,10.90
2019-05-26T04:35:57.868Z,10.70
2019-05-26T04:38:27.028Z,10.70
2019-05-26T04:40:55.979Z,10.60
2019-05-26T04:43:24.933Z,10.60
2019-05-26T04:45:53.968Z,10.60
2019-05-26T04:48:23.090Z,10.20
2019-05-26T04:50:52.480Z,10.00
2019-05-26T04:53:22.050Z,10.10
2019-05-26T04:55:54.299Z,10.40
2019-05-26T04:58:23.263Z,10.60
2019-05-26T05:00:53.512Z,10.80
2019-05-26T05:03:27.887Z,11.00
2019-05-26T05:05:56.897Z,11.10
2019-05-26T05:08:25.962Z,11.20
2019-05-26T05:10:55.434Z,11.30
2019-05-26T05:13:25.603Z,11.30
2019-05-26T05:15:57.607Z,11.40
2019-05-26T05:18:26.565Z,11.50
2019-05-26T05:20:55.569Z,11.50
2019-05-26T05:23:24.686Z,11.30
2019-05-26T05:25:54.187Z,11.20
2019-05-26T05:28:23.239Z,11.20
2019-05-26T05:30:55.799Z,11.30
2019-05-26T05:33:24.869Z,11.50
2019-05-26T05:35:53.649Z,11.70
2019-05-26T05:38:23.225Z,12.00
2019-05-26T05:40:59.980Z,12.10
2019-05-26T05:43:28.137Z,12.30
2019-05-26T05:45:58.012Z,12.50
2019-05-26T05:48:27.680Z,12.60
2019-05-26T05:50:56.841Z,12.80
2019-05-26T05:53:25.892Z,13.00
2019-05-26T05:55:54.858Z,13.10
2019-05-26T05:58:24.315Z,13.20
2019-05-26T06:00:54.215Z,13.30
2019-05-26T06:03:23.447Z,13.20
2019-05-26T06:05:53.601Z,13.20
2019-05-26T06:08:23.966Z,13.30
2019-05-26T06:10:53.618Z,13.30
2019-05-26T06:13:23.299Z,13.40
2019-05-26T06:15:53.560Z,13.40
2019-05-26T06:18:22.926Z,13.40
2019-05-26T06:20:52.537Z,13.30
2019-05-26T06:23:22.265Z,13.30
2019-05-26T06:25:52.042Z,13.30
2019-05-26T06:28:22.300Z,13.30
2019-05-26T06:30:51.907Z,13.50
2019-05-26T06:33:20.997Z,13.60
2019-05-26T06:35:52.588Z,13.60
2019-05-26T06:38:22.789Z,13.70
2019-05-26T06:40:53.367Z,13.80
2019-05-26T06:43:27.244Z,13.80
2019-05-26T06:45:56.640Z,13.80
2019-05-26T06:48:27.004Z,13.90
2019-05-26T06:50:58.584Z,14.00
2019-05-26T06:53:27.193Z,14.00
2019-05-26T06:55:56.737Z,14.00
2019-05-26T06:58:26.179Z,14.00
2019-05-26T07:00:55.870Z,14.00
2019-05-26T07:03:24.914Z,14.00
2019-05-26T07:05:53.905Z,14.20
2019-05-26T07:08:23.734Z,14.20
2019-05-26T07:10:53.743Z,14.30
2019-05-26T07:13:23.357Z,14.20
2019-05-26T07:15:52.815Z,14.20
2019-05-26T07:18:24.636Z,14.30
2019-05-26T07:20:54.294Z,14.50
2019-05-26T07:23:23.746Z,14.50
2019-05-26T07:25:54.026Z,14.60
2019-05-26T07:28:24.260Z,14.70
2019-05-26T07:30:56.198Z,14.90
2019-05-26T07:33:25.182Z,14.90
2019-05-26T07:35:54.797Z,14.90
2019-05-26T07:38:24.381Z,14.90
2019-05-26T07:40:53.531Z,15.00
2019-05-26T07:43:22.656Z,15.00
2019-05-26T07:45:54.048Z,15.10
2019-05-26T07:48:26.646Z,15.10
2019-05-26T07:50:56.427Z,15.10
2019-05-26T07:53:25.466Z,15.40
2019-05-26T07:55:54.849Z,15.30
2019-05-26T07:58:25.842Z,15.30
2019-05-26T08:00:55.809Z,15.40
2019-05-26T08:03:24.914Z,15.40
2019-05-26T08:05:54.208Z,15.50
2019-05-26T08:08:24.616Z,15.70
2019-05-26T08:10:55.261Z,15.80
2019-05-26T08:13:24.864Z,15.80
2019-05-26T08:15:55.011Z,15.90
2019-05-26T08:18:26.211Z,16.10
2019-05-26T08:20:56.052Z,16.10
2019-05-26T08:23:25.020Z,16.10
2019-05-26T08:25:55.533Z,16.10
2019-05-26T08:28:24.550Z,16.10
2019-05-26T08:30:53.518Z,16.10
2019-05-26T08:33:22.268Z,16.20
2019-05-26T08:35:54.903Z,16.40
2019-05-26T08:38:23.957Z,16.30
2019-05-26T08:40:52.992Z,16.40
2019-05-26T08:43:22.547Z,16.40
2019-05-26T08:45:51.807Z,16.30
2019-05-26T08:48:20.687Z,16.50
2019-05-26T08:50:50.167Z,16.60
2019-05-26T08:53:20.716Z,16.50
2019-05-26T08:55:50.250Z,16.60
2019-05-26T08:58:20.528Z,16.70
2019-05-26T09:00:54.043Z,16.70
2019-05-26T09:03:23.983Z,16.80
2019-05-26T09:05:52.612Z,16.80
2019-05-26T09:08:23.531Z,16.80
2019-05-26T09:10:53.574Z,16.90
2019-05-26T09:13:24.484Z,16.90
2019-05-26T09:15:53.919Z,16.90
2019-05-26T09:18:24.177Z,16.90
2019-05-26T09:20:57.268Z,17.00
2019-05-26T09:23:27.959Z,17.10
2019-05-26T09:25:58.625Z,17.20
2019-05-26T09:28:28.267Z,17.20
2019-05-26T09:30:59.087Z,17.30
2019-05-26T09:33:38.897Z,17.20
2019-05-26T09:36:07.689Z,17.20
2019-05-26T09:38:36.250Z,17.30
2019-05-26T09:41:04.985Z,17.30
2019-05-26T09:43:33.547Z,17.30
2019-05-26T09:46:02.564Z,17.10
2019-05-26T09:48:31.571Z,17.20
2019-05-26T09:51:01.983Z,17.30
2019-05-26T09:53:31.128Z,17.40
2019-05-26T09:56:00.266Z,17.50
2019-05-26T09:58:29.237Z,17.50
2019-05-26T10:01:05.696Z,17.70
2019-05-26T10:03:34.026Z,17.90
2019-05-26T10:06:02.895Z,18.10
2019-05-26T10:08:31.667Z,18.30
2019-05-26T10:11:00.715Z,18.40
2019-05-26T10:13:32.097Z,18.40
2019-05-26T10:16:00.622Z,18.40
2019-05-26T10:18:29.889Z,18.30
2019-05-26T10:20:59.087Z,18.20
2019-05-26T10:23:28.307Z,18.30
2019-05-26T10:25:59.101Z,18.10
2019-05-26T10:28:28.282Z,18.10
2019-05-26T10:30:57.339Z,17.90
2019-05-26T10:33:27.730Z,17.80
2019-05-26T10:35:57.542Z,18.00
2019-05-26T10:38:28.411Z,18.20
2019-05-26T10:40:58.245Z,18.20
2019-05-26T10:43:27.646Z,18.20
2019-05-26T10:45:57.804Z,18.30
2019-05-26T10:48:27.757Z,18.20
2019-05-26T10:51:00.000Z,18.20
2019-05-26T10:53:30.813Z,18.20
2019-05-26T10:56:01.081Z,18.30
2019-05-26T10:58:30.314Z,18.30
2019-05-26T11:00:59.863Z,18.60
2019-05-26T11:03:30.871Z,18.80
2019-05-26T11:06:01.854Z,19.30
2019-05-26T11:08:31.285Z,19.50
2019-05-26T11:11:00.878Z,19.70
2019-05-26T11:13:30.666Z,19.70
2019-05-26T11:16:00.662Z,19.60
2019-05-26T11:18:31.072Z,19.60
2019-05-26T11:21:00.141Z,19.70
2019-05-26T11:23:29.871Z,19.80
2019-05-26T11:26:01.105Z,19.90
2019-05-26T11:28:29.728Z,20.00
2019-05-26T11:30:58.793Z,20.00
2019-05-26T11:33:29.424Z,20.20
2019-05-26T11:35:58.555Z,20.20
2019-05-26T11:38:27.821Z,20.30
2019-05-26T11:40:56.956Z,20.50
2019-05-26T11:43:26.636Z,20.30
2019-05-26T11:45:59.524Z,20.00
2019-05-26T11:48:29.462Z,19.80
2019-05-26T11:51:00.170Z,19.80
2019-05-26T11:53:30.690Z,19.80
2019-05-26T11:56:00.042Z,19.90
2019-05-26T11:58:31.086Z,20.00
2019-05-26T12:01:01.092Z,20.10
2019-05-26T12:03:31.287Z,20.20
2019-05-26T12:06:01.571Z,20.30
2019-05-26T12:08:31.099Z,20.30
2019-05-26T12:11:04.097Z,20.20
2019-05-26T12:13:34.749Z,20.10
2019-05-26T12:16:03.145Z,20.20
2019-05-26T12:18:32.227Z,20.30
2019-05-26T12:21:01.288Z,20.40
2019-05-26T12:23:31.598Z,20.50
2019-05-26T12:26:00.247Z,20.50
2019-05-26T12:28:29.441Z,20.70
2019-05-26T12:30:59.720Z,20.80
2019-05-26T12:33:28.768Z,20.90
2019-05-26T12:35:57.736Z,20.90
2019-05-26T12:38:28.377Z,20.90
2019-05-26T12:40:57.291Z,21.00
2019-05-26T12:43:26.056Z,21.00
2019-05-26T12:45:55.208Z,21.10
2019-05-26T12:48:24.689Z,21.10
2019-05-26T12:50:53.614Z,21.20
2019-05-26T12:53:23.248Z,21.10
2019-05-26T12:55:53.354Z,21.20
2019-05-26T12:58:23.181Z,21.20
2019-05-26T13:00:56.409Z,21.20
2019-05-26T13:03:25.130Z,21.30
2019-05-26T13:05:55.396Z,21.40
2019-05-26T13:08:25.757Z,21.40
2019-05-26T13:10:55.783Z,21.40
2019-05-26T13:13:28.424Z,21.40
2019-05-26T13:15:58.394Z,21.20
2019-05-26T13:18:27.358Z,21.10
2019-05-26T13:20:57.030Z,21.10
2019-05-26T13:23:26.912Z,21.20
2019-05-26T13:25:55.907Z,21.20
2019-05-26T13:28:25.857Z,21.30
2019-05-26T13:30:55.955Z,21.30
2019-05-26T13:33:26.469Z,21.30
2019-05-26T13:35:57.595Z,21.30
2019-05-26T13:38:31.527Z,21.40
2019-05-26T13:41:00.939Z,21.40
2019-05-26T13:43:31.646Z,21.50
2019-05-26T13:46:00.949Z,21.40
2019-05-26T13:48:31.628Z,21.40
2019-05-26T13:51:01.062Z,21.40
2019-05-26T13:53:31.246Z,21.30
2019-05-26T13:56:00.610Z,21.40
2019-05-26T13:58:30.917Z,21.50
2019-05-26T14:01:00.623Z,21.60
2019-05-26T14:03:30.001Z,21.60
2019-05-26T14:05:59.607Z,21.50
2019-05-26T14:08:28.712Z,21.50
2019-05-26T14:10:57.985Z,21.50
2019-05-26T14:13:31.611Z,21.40
2019-05-26T14:16:01.482Z,21.40
2019-05-26T14:18:31.713Z,21.30
2019-05-26T14:21:00.582Z,21.30
2019-05-26T14:23:29.796Z,21.40
2019-05-26T14:26:00.381Z,21.60
2019-05-26T14:28:29.864Z,21.70
2019-05-26T14:31:00.196Z,21.80
2019-05-26T14:33:29.790Z,22.00
2019-05-26T14:35:59.361Z,22.10
2019-05-26T14:38:42.687Z,22.10
2019-05-26T14:41:05.011Z,22.00
2019-05-26T14:43:33.562Z,22.00
2019-05-26T14:46:04.684Z,22.40
2019-05-26T14:48:33.235Z,22.70
2019-05-26T14:51:02.596Z,22.90
2019-05-26T14:53:33.136Z,22.90
2019-05-26T14:56:02.280Z,23.00
2019-05-26T14:58:31.879Z,22.60
2019-05-26T15:01:02.444Z,22.60
2019-05-26T15:03:31.617Z,22.70
2019-05-26T15:06:05.946Z,22.90
2019-05-26T15:08:36.250Z,22.90
2019-05-26T15:11:05.147Z,22.70
2019-05-26T15:13:33.764Z,22.30
2019-05-26T15:16:10.119Z,22.30
2019-05-26T15:18:35.870Z,22.90
2019-05-26T15:21:04.498Z,23.40
2019-05-26T15:23:33.118Z,23.30
2019-05-26T15:26:05.369Z,23.20
2019-05-26T15:28:33.070Z,23.50
2019-05-26T15:31:01.741Z,23.50
2019-05-26T15:33:31.674Z,23.10
2019-05-26T15:36:00.955Z,23.00
2019-05-26T15:38:42.464Z,23.20
2019-05-26T15:41:01.822Z,23.50
2019-05-26T15:43:31.311Z,23.70
2019-05-26T15:46:01.556Z,23.70
2019-05-26T15:48:31.685Z,23.80
2019-05-26T15:51:01.288Z,23.90
2019-05-26T15:53:31.798Z,24.10
2019-05-26T15:56:01.641Z,23.40
2019-05-26T15:58:30.979Z,22.90
2019-05-26T16:01:01.143Z,22.40
2019-05-26T16:03:30.419Z,22.30
2019-05-26T16:06:01.678Z,22.30
2019-05-26T16:08:30.310Z,22.10
2019-05-26T16:11:00.741Z,21.80
2019-05-26T16:13:30.902Z,21.70
2019-05-26T16:16:01.810Z,21.80
2019-05-26T16:18:32.106Z,21.70
2019-05-26T16:21:03.694Z,21.50
2019-05-26T16:23:33.246Z,21.40
2019-05-26T16:26:02.069Z,21.20
2019-05-26T16:28:32.610Z,20.90
2019-05-26T16:31:02.892Z,20.40
2019-05-26T16:33:33.901Z,20.50
2019-05-26T16:36:05.570Z,20.60
2019-05-26T16:38:34.687Z,20.60
2019-05-26T16:41:06.705Z,20.70
2019-05-26T16:43:35.524Z,21.20
2019-05-26T16:46:05.681Z,21.80
2019-05-26T16:48:40.807Z,22.20
2019-05-26T16:51:11.664Z,22.20
2019-05-26T16:53:40.619Z,22.10
2019-05-26T16:56:09.222Z,22.10
2019-05-26T16:58:37.784Z,22.00
2019-05-26T17:01:06.387Z,21.90
2019-05-26T17:03:35.318Z,21.80
2019-05-26T17:06:07.801Z,21.70
2019-05-26T17:08:35.160Z,21.60
2019-05-26T17:11:04.954Z,21.20
2019-05-26T17:13:34.730Z,21.00
2019-05-26T17:16:04.914Z,20.50
2019-05-26T17:18:36.020Z,20.20
2019-05-26T17:21:04.718Z,20.20
2019-05-26T17:23:33.318Z,19.90
2019-05-26T17:26:02.389Z,19.80
2019-05-26T17:28:33.351Z,19.70
2019-05-26T17:31:02.336Z,19.80
2019-05-26T17:33:30.962Z,20.10
2019-05-26T17:36:01.069Z,20.00
2019-05-26T17:38:30.626Z,20.00
2019-05-26T17:40:59.630Z,20.00
2019-05-26T17:43:30.385Z,19.80
2019-05-26T17:45:59.083Z,19.70
2019-05-26T17:48:29.603Z,19.60
2019-05-26T17:50:59.828Z,19.40
2019-05-26T17:53:29.539Z,19.20
2019-05-26T17:55:58.619Z,19.00
2019-05-26T17:58:28.041Z,19.00
2019-05-26T18:00:57.414Z,19.00
2019-05-26T18:03:27.277Z,19.00
2019-05-26T18:05:59.992Z,18.90
2019-05-26T18:08:29.832Z,18.80
2019-05-26T18:10:58.898Z,18.90
2019-05-26T18:13:28.287Z,18.90
2019-05-26T18:15:58.312Z,19.00
2019-05-26T18:18:27.734Z,18.80
2019-05-26T18:20:57.905Z,18.50
2019-05-26T18:23:27.139Z,18.40
2019-05-26T18:25:56.195Z,18.20
2019-05-26T18:28:25.849Z,18.10
2019-05-26T18:30:56.457Z,17.90
2019-05-26T18:33:26.404Z,17.90
2019-05-26T18:35:55.646Z,17.80
2019-05-26T18:38:26.275Z,17.70
2019-05-26T18:40:55.224Z,17.70
2019-05-26T18:43:24.629Z,17.50
2019-05-26T18:45:54.197Z,17.40
2019-05-26T18:48:25.236Z,17.40
2019-05-26T18:50:54.935Z,17.30
2019-05-26T18:53:23.920Z,17.20
2019-05-26T18:55:56.095Z,17.10
2019-05-26T18:58:26.803Z,17.00
2019-05-26T19:01:02.097Z,16.80
2019-05-26T19:03:32.047Z,16.70
2019-05-26T19:06:01.765Z,16.60
2019-05-26T19:08:30.995Z,16.50
2019-05-26T19:11:01.235Z,16.40
2019-05-26T19:13:32.907Z,16.30
2019-05-26T19:16:04.308Z,16.30
2019-05-26T19:18:33.947Z,16.30
2019-05-26T19:21:04.134Z,16.30
2019-05-26T19:23:34.167Z,16.30
2019-05-26T19:26:04.134Z,16.40
2019-05-26T19:28:33.792Z,16.50
2019-05-26T19:31:04.078Z,16.60
2019-05-26T19:33:34.259Z,16.70
2019-05-26T19:36:09.085Z,16.60
2019-05-26T19:38:35.330Z,16.60
2019-05-26T19:41:04.897Z,16.50
2019-05-26T19:43:34.010Z,16.40
2019-05-26T19:46:05.294Z,16.30
2019-05-26T19:48:36.938Z,16.10
2019-05-26T19:51:05.858Z,16.00
2019-05-26T19:53:34.831Z,16.00
2019-05-26T19:56:03.440Z,15.90
2019-05-26T19:58:33.513Z,15.80
2019-05-26T20:01:03.554Z,15.70
2019-05-26T20:03:34.384Z,15.60
2019-05-26T20:06:05.057Z,15.50
2019-05-26T20:08:34.441Z,15.50
2019-05-26T20:11:04.683Z,15.40
2019-05-26T20:13:33.856Z,15.40
2019-05-26T20:16:03.487Z,15.20
2019-05-26T20:18:32.711Z,15.20
2019-05-26T20:21:04.294Z,15.10
2019-05-26T20:23:33.393Z,15.00
2019-05-26T20:26:02.294Z,15.00
2019-05-26T20:28:31.982Z,14.90
2019-05-26T20:31:01.671Z,14.80
2019-05-26T20:33:31.070Z,14.80
2019-05-26T20:36:02.458Z,14.80
2019-05-26T20:38:31.363Z,14.70
2019-05-26T20:41:00.307Z,14.60
2019-05-26T20:43:29.394Z,14.60
2019-05-26T20:45:59.011Z,14.60
2019-05-26T20:48:30.373Z,14.50
2019-05-26T20:50:59.960Z,14.40
2019-05-26T20:53:30.095Z,14.40
2019-05-26T20:55:59.878Z,14.40
2019-05-26T20:58:29.848Z,14.30
2019-05-26T21:00:59.850Z,14.20
2019-05-26T21:03:30.402Z,14.10
2019-05-26T21:05:59.690Z,14.10
2019-05-26T21:08:29.262Z,14.00
2019-05-26T21:10:59.132Z,14.00
2019-05-26T21:13:29.706Z,13.90
2019-05-26T21:15:59.357Z,13.90
2019-05-26T21:18:29.006Z,13.80
2019-05-26T21:20:59.352Z,13.80
2019-05-26T21:23:29.876Z,13.80
2019-05-26T21:25:59.810Z,13.70
2019-05-26T21:28:29.644Z,13.70
2019-05-26T21:30:59.878Z,13.70
2019-05-26T21:33:29.843Z,13.70
2019-05-26T21:36:00.126Z,13.60
2019-05-26T21:38:30.067Z,13.60
2019-05-26T21:41:00.132Z,13.60
2019-05-26T21:43:30.107Z,13.50
2019-05-26T21:45:59.751Z,13.40
2019-05-26T21:48:30.103Z,13.40
2019-05-26T21:51:00.167Z,13.40
2019-05-26T21:53:30.170Z,13.40
2019-05-26T21:56:02.199Z,13.40
2019-05-26T21:58:31.489Z,13.40
2019-05-26T22:01:01.144Z,13.30
2019-05-26T22:03:31.258Z,13.30
2019-05-26T22:06:01.151Z,13.30
2019-05-26T22:08:32.695Z,13.20
2019-05-26T22:11:04.766Z,13.20
2019-05-26T22:13:33.522Z,13.10
2019-05-26T22:16:02.655Z,13.10
2019-05-26T22:18:32.598Z,13.10
2019-05-26T22:21:02.619Z,13.10
2019-05-26T22:23:31.718Z,13.00
2019-05-26T22:26:02.318Z,12.90
2019-05-26T22:28:31.618Z,13.00
2019-05-26T22:31:01.215Z,13.00
2019-05-26T22:33:31.729Z,13.00
2019-05-26T22:36:01.914Z,12.90
2019-05-26T22:38:31.498Z,12.90
2019-05-26T22:41:01.302Z,12.90
2019-05-26T22:43:31.705Z,13.00
2019-05-26T22:46:02.366Z,13.10
2019-05-26T22:48:31.771Z,13.10
2019-05-26T22:51:00.578Z,13.10
2019-05-26T22:53:31.124Z,13.00
2019-05-26T22:56:02.031Z,12.90
2019-05-26T22:58:31.743Z,12.90
2019-05-26T23:01:01.843Z,12.80
2019-05-26T23:03:37.930Z,12.80
2019-05-26T23:06:06.574Z,12.80
2019-05-26T23:08:38.680Z,12.80
2019-05-26T23:11:07.247Z,12.80
2019-05-26T23:13:36.664Z,12.70
2019-05-26T23:16:05.330Z,12.60
2019-05-26T23:18:33.903Z,12.60
2019-05-26T23:21:02.649Z,12.40
2019-05-26T23:23:31.718Z,12.40
2019-05-26T23:26:01.386Z,12.30
2019-05-26T23:28:30.816Z,12.30
2019-05-26T23:31:02.780Z,12.40
2019-05-26T23:33:33.444Z,12.30
2019-05-26T23:36:02.253Z,12.20
2019-05-26T23:38:32.738Z,12.20
2019-05-26T23:41:02.208Z,12.10
2019-05-26T23:43:31.841Z,12.20
2019-05-26T23:46:01.385Z,12.10
2019-05-26T23:48:32.069Z,12.20
2019-05-26T23:51:02.203Z,12.10
2019-05-26T23:53:32.210Z,12.00
2019-05-26T23:56:02.203Z,11.90
2019-05-26T23:58:32.718Z,11.90
